Ruby Airport

About
Name: Ruby Airport
Identifier:  RBY/PARY
Serves:  Ruby, Alaska
Owner:  State of Alaska DOT&PF
Public/Private:  Public
Local Time:  20. Aug 06:33 AKDT
Description: Ruby Airport is a state owned, public use airport located one nautical mile southeast of the central business district of Ruby, a city in the Yukon-Koyukuk Census Area of the U.S. state of Alaska.
Source: Wikipedia
Location
Runways
Identifier Length (m/ft) Surface
3/21 4,000/4,000 Gravel
Flights per Day
4 flights
Distance: 217km (134mi)
Punctuality
68% (1 flights per day delayed)
Delay Average: 24 minutes
Current Weather
 8 C (Humidity: 70%)
  7kt (12km/h / 8mph) from 80°
  16km (10 mi.)
 
 METAR PARY 201356Z AUTO 08007KT 10SM CLR 08/03 A2989 RMK AO2 SLP153 T00780028

Current Flights

Departures
Number Departure To Airline
Arrivals
Number Arrival From Airline
 8V450 09:15  Fairbanks  Astral Aviation

Current Delays

Departures
N/A
Arrivals
N/A

Destinations

Top Destinations
Airport Flights
per week
Seats
per week
  Fairbanks (FAI) 0 - 0 0

Airlines & Planes

Top Plane Types
Model Flights Seats
Beech 1900D 0.1/day - 0